createdAt,value
2022-08-02T00:00:25.893Z,12.60
2022-08-02T00:02:55.136Z,12.60
2022-08-02T00:05:23.043Z,12.60
2022-08-02T00:07:50.983Z,12.60
2022-08-02T00:10:18.930Z,12.50
2022-08-02T00:12:46.848Z,12.50
2022-08-02T00:15:16.283Z,12.50
2022-08-02T00:17:44.506Z,12.40
2022-08-02T00:20:16.634Z,12.40
2022-08-02T00:22:44.587Z,12.40
2022-08-02T00:25:12.619Z,12.40
2022-08-02T00:27:40.531Z,12.40
2022-08-02T00:30:09.564Z,12.40
2022-08-02T00:32:37.498Z,12.30
2022-08-02T00:35:06.199Z,12.30
2022-08-02T00:37:40.030Z,12.30
2022-08-02T00:40:09.350Z,12.20
2022-08-02T00:42:37.289Z,12.20
2022-08-02T00:45:06.182Z,12.10
2022-08-02T00:47:34.143Z,12.10
2022-08-02T00:50:02.067Z,12.00
2022-08-02T00:52:29.974Z,12.00
2022-08-02T00:54:59.230Z,11.90
2022-08-02T00:57:27.092Z,11.90
2022-08-02T00:59:55.014Z,11.80
2022-08-02T01:02:22.892Z,11.80
2022-08-02T01:04:50.772Z,11.80
2022-08-02T01:07:18.698Z,11.80
2022-08-02T01:09:46.806Z,11.70
2022-08-02T01:12:16.319Z,11.70
2022-08-02T01:14:46.988Z,11.70
2022-08-02T01:17:21.384Z,11.70
2022-08-02T01:19:58.537Z,11.70
2022-08-02T01:23:01.122Z,11.60
2022-08-02T01:25:45.933Z,11.60
2022-08-02T01:28:31.137Z,11.50
2022-08-02T01:31:02.500Z,11.50
2022-08-02T01:33:37.610Z,11.40
2022-08-02T01:36:08.920Z,11.40
2022-08-02T01:38:40.967Z,11.40
2022-08-02T01:41:13.386Z,11.30
2022-08-02T01:43:44.729Z,11.30
2022-08-02T01:46:15.092Z,11.30
2022-08-02T01:48:45.000Z,11.20
2022-08-02T01:51:17.241Z,11.20
2022-08-02T01:53:49.186Z,11.20
2022-08-02T01:56:18.480Z,11.10
2022-08-02T01:58:48.782Z,11.10
2022-08-02T02:01:19.490Z,11.10
2022-08-02T02:03:49.620Z,11.00
2022-08-02T02:06:19.312Z,11.10
2022-08-02T02:08:48.390Z,11.00
2022-08-02T02:12:05.850Z,11.00
2022-08-02T02:14:08.936Z,11.00
2022-08-02T02:16:38.246Z,11.00
2022-08-02T02:19:08.257Z,10.90
2022-08-02T02:21:36.523Z,10.90
2022-08-02T02:24:05.886Z,10.90
2022-08-02T02:26:46.451Z,10.90
2022-08-02T02:29:24.591Z,10.90
2022-08-02T02:31:55.319Z,10.90
2022-08-02T02:34:28.668Z,10.90
2022-08-02T02:37:00.372Z,10.90
2022-08-02T02:39:29.457Z,10.80
2022-08-02T02:42:03.054Z,10.80
2022-08-02T02:44:33.406Z,10.80
2022-08-02T02:47:02.311Z,10.80
2022-08-02T02:49:34.191Z,10.80
2022-08-02T02:52:03.359Z,10.70
2022-08-02T02:54:35.457Z,10.70
2022-08-02T02:57:06.523Z,10.70
2022-08-02T02:59:42.533Z,10.70
2022-08-02T03:02:18.087Z,10.70
2022-08-02T03:04:56.226Z,10.70
2022-08-02T03:07:26.223Z,10.70
2022-08-02T03:09:55.061Z,10.70
2022-08-02T03:12:30.970Z,10.70
2022-08-02T03:15:04.032Z,10.70
2022-08-02T03:17:45.363Z,10.70
2022-08-02T03:20:15.367Z,10.70
2022-08-02T03:22:43.992Z,10.70
2022-08-02T03:25:13.681Z,10.70
2022-08-02T03:27:42.379Z,10.70
2022-08-02T03:30:13.616Z,10.70
2022-08-02T03:32:44.987Z,10.70
2022-08-02T03:35:18.707Z,10.70
2022-08-02T03:37:51.536Z,10.70
2022-08-02T03:40:20.358Z,10.70
2022-08-02T03:42:49.843Z,10.70
2022-08-02T03:45:20.806Z,10.70
2022-08-02T03:47:49.133Z,10.70
2022-08-02T03:50:18.244Z,10.70
2022-08-02T03:52:47.500Z,10.70
2022-08-02T03:55:15.660Z,10.50
2022-08-02T03:57:44.457Z,10.70
2022-08-02T04:00:18.342Z,10.70
2022-08-02T04:02:47.828Z,10.70
2022-08-02T04:05:16.063Z,10.70
2022-08-02T04:08:32.729Z,10.70
2022-08-02T04:10:52.649Z,10.70
2022-08-02T04:13:22.839Z,10.70
2022-08-02T04:15:54.956Z,10.70
2022-08-02T04:18:29.875Z,10.80
2022-08-02T04:20:59.134Z,10.80
2022-08-02T04:23:27.606Z,10.80
2022-08-02T04:26:01.309Z,10.90
2022-08-02T04:28:29.755Z,10.90
2022-08-02T04:30:58.819Z,11.00
2022-08-02T04:33:29.427Z,11.00
2022-08-02T04:35:59.780Z,11.00
2022-08-02T04:38:27.899Z,11.10
2022-08-02T04:40:57.044Z,11.10
2022-08-02T04:43:25.732Z,11.20
2022-08-02T04:45:55.643Z,11.20
2022-08-02T04:48:24.056Z,11.30
2022-08-02T04:50:53.385Z,11.40
2022-08-02T04:53:21.343Z,11.50
2022-08-02T04:55:49.333Z,11.60
2022-08-02T04:58:40.130Z,11.60
2022-08-02T05:01:05.183Z,11.70
2022-08-02T05:03:33.132Z,11.80
2022-08-02T05:06:02.333Z,11.80
2022-08-02T05:08:30.429Z,11.90
2022-08-02T05:10:58.290Z,11.90
2022-08-02T05:13:26.244Z,11.90
2022-08-02T05:15:54.288Z,12.00
2022-08-02T05:18:22.183Z,12.00
2022-08-02T05:20:51.457Z,12.00
2022-08-02T05:23:22.288Z,12.00
2022-08-02T05:25:50.155Z,12.10
2022-08-02T05:28:18.148Z,12.30
2022-08-02T05:30:47.107Z,12.70
2022-08-02T05:33:17.550Z,13.10
2022-08-02T05:35:45.586Z,13.60
2022-08-02T05:38:13.491Z,14.20
2022-08-02T05:40:54.423Z,14.80
2022-08-02T05:43:23.295Z,15.40
2022-08-02T05:45:53.378Z,15.90
2022-08-02T05:48:21.589Z,16.40
2022-08-02T05:50:55.223Z,16.80
2022-08-02T05:53:29.689Z,17.10
2022-08-02T05:56:10.315Z,17.50
2022-08-02T05:58:50.432Z,17.90
2022-08-02T06:01:28.355Z,18.40
2022-08-02T06:04:00.531Z,18.80
2022-08-02T06:06:30.382Z,19.20
2022-08-02T06:09:02.391Z,19.60
2022-08-02T06:11:37.607Z,19.70
2022-08-02T06:14:07.034Z,20.00
2022-08-02T06:16:36.831Z,20.30
2022-08-02T06:19:12.928Z,20.60
2022-08-02T06:22:32.953Z,20.60
2022-08-02T06:24:33.970Z,20.70
2022-08-02T06:27:04.242Z,21.10
2022-08-02T06:29:38.740Z,21.50
2022-08-02T06:32:08.970Z,21.70
2022-08-02T06:34:38.999Z,21.80
2022-08-02T06:37:18.522Z,22.00
2022-08-02T06:39:50.037Z,22.30
2022-08-02T06:42:27.683Z,22.50
2022-08-02T06:44:58.000Z,22.70
2022-08-02T06:47:26.524Z,22.90
2022-08-02T06:49:55.029Z,23.00
2022-08-02T06:52:29.343Z,23.10
2022-08-02T06:54:58.921Z,23.30
2022-08-02T06:57:28.634Z,23.40
2022-08-02T06:59:56.818Z,23.60
2022-08-02T07:02:24.903Z,23.70
2022-08-02T07:04:52.827Z,23.70
2022-08-02T07:07:20.824Z,23.60
2022-08-02T07:09:56.697Z,23.60
2022-08-02T07:12:32.108Z,23.90
2022-08-02T07:15:00.610Z,24.10
2022-08-02T07:17:28.823Z,24.30
2022-08-02T07:19:57.445Z,24.40
2022-08-02T07:22:27.211Z,24.50
2022-08-02T07:24:56.416Z,24.60
2022-08-02T07:27:24.894Z,24.90
2022-08-02T07:29:54.597Z,25.20
2022-08-02T07:32:24.919Z,25.40
2022-08-02T07:34:55.063Z,25.60
2022-08-02T07:37:35.115Z,25.80
2022-08-02T07:40:13.369Z,26.00
2022-08-02T07:42:43.698Z,26.20
2022-08-02T07:45:14.626Z,26.40
2022-08-02T07:47:44.439Z,26.40
2022-08-02T07:50:13.526Z,26.60
2022-08-02T07:52:42.188Z,26.80
2022-08-02T07:55:11.130Z,27.00
2022-08-02T07:57:45.530Z,27.10
2022-08-02T08:00:17.412Z,27.20
2022-08-02T08:02:46.059Z,27.30
2022-08-02T08:05:14.154Z,27.40
2022-08-02T08:07:42.069Z,27.50
2022-08-02T08:10:10.947Z,27.60
2022-08-02T08:12:38.882Z,27.70
2022-08-02T08:15:07.615Z,27.80
2022-08-02T08:17:37.327Z,28.00
2022-08-02T08:20:06.551Z,28.10
2022-08-02T08:22:34.494Z,28.00
2022-08-02T08:25:02.465Z,28.00
2022-08-02T08:27:31.980Z,28.10
2022-08-02T08:29:59.855Z,28.40
2022-08-02T08:32:28.037Z,28.50
2022-08-02T08:34:57.299Z,28.40
2022-08-02T08:37:25.207Z,28.50
2022-08-02T08:39:56.224Z,28.60
2022-08-02T08:42:27.508Z,28.90
2022-08-02T08:44:57.588Z,29.00
2022-08-02T08:47:33.403Z,28.90
2022-08-02T08:50:06.271Z,28.90
2022-08-02T08:52:37.794Z,28.80
2022-08-02T08:55:06.276Z,28.90
2022-08-02T08:57:39.315Z,29.00
2022-08-02T09:00:08.854Z,29.00
2022-08-02T09:02:38.019Z,29.10
2022-08-02T09:05:10.740Z,29.10
2022-08-02T09:07:39.172Z,29.10
2022-08-02T09:10:34.802Z,29.30
2022-08-02T09:13:43.544Z,29.50
2022-08-02T09:16:12.432Z,29.40
2022-08-02T09:18:43.796Z,29.50
2022-08-02T09:21:13.834Z,29.50
2022-08-02T09:23:43.550Z,29.50
2022-08-02T09:26:12.855Z,29.60
2022-08-02T09:28:42.782Z,29.80
2022-08-02T09:31:13.000Z,29.90
2022-08-02T09:33:43.226Z,30.00
2022-08-02T09:36:13.752Z,30.20
2022-08-02T09:38:43.130Z,30.20
2022-08-02T09:41:22.633Z,30.20
2022-08-02T09:43:52.003Z,30.10
2022-08-02T09:46:37.315Z,30.10
2022-08-02T09:49:06.897Z,30.10
2022-08-02T09:51:39.244Z,30.10
2022-08-02T09:54:09.814Z,30.10
2022-08-02T09:56:46.316Z,30.20
2022-08-02T09:59:15.452Z,30.20
2022-08-02T10:01:51.343Z,30.30
2022-08-02T10:04:29.837Z,30.10
2022-08-02T10:07:03.909Z,30.20
2022-08-02T10:09:32.548Z,30.20
2022-08-02T10:12:01.228Z,30.30
2022-08-02T10:14:29.503Z,30.30
2022-08-02T10:16:58.904Z,30.30
2022-08-02T10:19:59.800Z,30.40
2022-08-02T10:22:19.760Z,30.40
2022-08-02T10:24:48.849Z,30.50
2022-08-02T10:27:19.980Z,30.50
2022-08-02T10:29:55.177Z,30.60
2022-08-02T10:32:29.845Z,30.60
2022-08-02T10:35:18.117Z,30.60
2022-08-02T10:37:53.602Z,30.70
2022-08-02T10:40:26.151Z,30.90
2022-08-02T10:43:00.586Z,30.80
2022-08-02T10:45:29.090Z,30.90
2022-08-02T10:48:06.102Z,31.10
2022-08-02T10:50:56.338Z,31.10
2022-08-02T10:53:30.434Z,31.00
2022-08-02T10:56:00.333Z,31.00
2022-08-02T10:58:32.257Z,31.10
2022-08-02T11:01:05.620Z,31.10
2022-08-02T11:03:42.292Z,31.10
2022-08-02T11:06:25.319Z,31.10
2022-08-02T11:09:32.978Z,31.00
2022-08-02T11:12:05.004Z,31.10
2022-08-02T11:14:34.956Z,31.30
2022-08-02T11:17:14.157Z,31.50
2022-08-02T11:20:17.515Z,31.60
2022-08-02T11:22:47.000Z,31.70
2022-08-02T11:26:02.315Z,31.90
2022-08-02T11:28:25.598Z,31.90
2022-08-02T11:31:01.467Z,32.10
2022-08-02T11:33:35.980Z,31.90
2022-08-02T11:36:06.568Z,31.80
2022-08-02T11:38:34.563Z,31.70
2022-08-02T11:41:09.549Z,31.70
2022-08-02T11:43:40.568Z,31.60
2022-08-02T11:46:15.080Z,31.80
2022-08-02T11:48:44.515Z,31.90
2022-08-02T11:51:14.104Z,32.10
2022-08-02T11:53:50.458Z,32.20
2022-08-02T11:56:25.008Z,32.20
2022-08-02T11:59:05.885Z,32.20
2022-08-02T12:01:36.911Z,32.20
2022-08-02T12:04:18.007Z,32.10
2022-08-02T12:06:54.307Z,32.20
2022-08-02T12:09:23.994Z,32.30
2022-08-02T12:11:52.172Z,32.20
2022-08-02T12:14:21.410Z,32.10
2022-08-02T12:17:07.719Z,31.90
2022-08-02T12:19:36.650Z,31.90
2022-08-02T12:22:17.612Z,31.90
2022-08-02T12:24:48.382Z,31.90
2022-08-02T12:27:33.732Z,31.70
2022-08-02T12:30:07.093Z,31.50
2022-08-02T12:32:35.327Z,31.50
2022-08-02T12:35:09.447Z,31.50
2022-08-02T12:37:39.067Z,31.50
2022-08-02T12:40:25.199Z,31.60
2022-08-02T12:42:58.309Z,31.60
2022-08-02T12:45:38.279Z,31.70
2022-08-02T12:48:10.691Z,31.70
2022-08-02T12:50:38.949Z,31.70
2022-08-02T12:53:09.236Z,31.90
2022-08-02T12:56:02.051Z,31.70
2022-08-02T12:58:31.936Z,31.60
2022-08-02T13:01:03.021Z,31.70
2022-08-02T13:04:10.297Z,31.80
2022-08-02T13:09:16.735Z,31.90
2022-08-02T13:11:45.289Z,31.90
2022-08-02T13:14:14.249Z,31.70
2022-08-02T13:16:45.451Z,31.60
2022-08-02T13:19:15.199Z,31.50
2022-08-02T13:22:02.193Z,31.50
2022-08-02T13:24:40.098Z,31.50
2022-08-02T13:27:21.411Z,31.40
2022-08-02T13:29:49.755Z,31.40
2022-08-02T13:32:19.046Z,31.40
2022-08-02T13:34:47.155Z,31.50
2022-08-02T13:37:15.570Z,31.60
2022-08-02T13:39:51.468Z,31.70
2022-08-02T13:42:31.867Z,31.50
2022-08-02T13:44:59.764Z,31.60
2022-08-02T13:47:36.330Z,31.70
2022-08-02T13:50:17.448Z,31.60
2022-08-02T13:52:45.410Z,31.50
2022-08-02T13:55:13.333Z,31.60
2022-08-02T13:57:41.474Z,31.50
2022-08-02T14:00:11.313Z,31.50
2022-08-02T14:02:40.851Z,31.50
2022-08-02T14:05:09.730Z,31.40
2022-08-02T14:07:37.647Z,31.30
2022-08-02T14:10:06.305Z,31.20
2022-08-02T14:12:34.294Z,31.10
2022-08-02T14:15:02.270Z,31.00
2022-08-02T14:17:30.205Z,31.10
2022-08-02T14:19:59.662Z,31.20
2022-08-02T14:22:28.688Z,31.20
2022-08-02T14:24:56.591Z,31.20
2022-08-02T14:27:24.603Z,31.20
2022-08-02T14:29:52.642Z,31.20
2022-08-02T14:32:20.622Z,31.20
2022-08-02T14:34:56.046Z,31.20
2022-08-02T14:37:25.382Z,31.00
2022-08-02T14:40:00.263Z,30.90
2022-08-02T14:42:29.073Z,30.80
2022-08-02T14:44:57.208Z,30.70
2022-08-02T14:47:25.125Z,30.60
2022-08-02T14:49:53.163Z,30.60
2022-08-02T14:52:21.421Z,30.70
2022-08-02T14:54:50.727Z,30.70
2022-08-02T14:57:18.706Z,30.60
2022-08-02T14:59:47.187Z,30.50
2022-08-02T15:02:15.585Z,30.50
2022-08-02T15:04:44.298Z,30.50
2022-08-02T15:07:13.703Z,30.50
2022-08-02T15:09:41.738Z,30.60
2022-08-02T15:12:12.231Z,30.60
2022-08-02T15:14:41.055Z,30.60
2022-08-02T15:17:09.071Z,30.50
2022-08-02T15:19:58.052Z,30.50
2022-08-02T15:22:25.073Z,30.50
2022-08-02T15:24:53.055Z,30.60
2022-08-02T15:27:22.328Z,30.60
2022-08-02T15:29:50.316Z,30.50
2022-08-02T15:32:19.610Z,30.50
2022-08-02T15:34:47.865Z,30.40
2022-08-02T15:37:15.919Z,30.40
2022-08-02T15:39:43.835Z,30.40
2022-08-02T15:42:12.128Z,30.40
2022-08-02T15:44:41.653Z,30.40
2022-08-02T15:47:09.751Z,30.30
2022-08-02T15:49:41.331Z,30.40
2022-08-02T15:52:09.840Z,30.30
2022-08-02T15:54:37.914Z,30.30
2022-08-02T15:57:06.001Z,30.30
2022-08-02T15:59:33.951Z,30.30
2022-08-02T16:02:04.011Z,30.30
2022-08-02T16:04:32.043Z,30.30
2022-08-02T16:07:01.354Z,30.30
2022-08-02T16:09:29.964Z,30.10
2022-08-02T16:11:58.010Z,30.00
2022-08-02T16:14:26.160Z,30.00
2022-08-02T16:16:54.104Z,30.00
2022-08-02T16:19:37.501Z,30.00
2022-08-02T16:22:12.566Z,29.90
2022-08-02T16:24:40.795Z,29.80
2022-08-02T16:27:09.343Z,29.80
2022-08-02T16:29:37.431Z,29.80
2022-08-02T16:32:06.724Z,29.70
2022-08-02T16:34:57.124Z,29.60
2022-08-02T16:37:24.521Z,29.60
2022-08-02T16:39:52.493Z,29.50
2022-08-02T16:42:24.966Z,29.40
2022-08-02T16:44:53.327Z,29.20
2022-08-02T16:47:21.569Z,29.30
2022-08-02T16:50:11.518Z,29.20
2022-08-02T16:52:39.720Z,29.20
2022-08-02T16:55:10.164Z,29.10
2022-08-02T16:57:42.959Z,29.10
2022-08-02T17:00:16.122Z,29.10
2022-08-02T17:02:44.298Z,29.00
2022-08-02T17:05:16.463Z,29.00
2022-08-02T17:08:16.421Z,29.00
2022-08-02T17:10:33.726Z,29.00
2022-08-02T17:13:11.199Z,29.00
2022-08-02T17:16:07.774Z,28.90
2022-08-02T17:18:37.450Z,28.80
2022-08-02T17:21:12.057Z,28.70
2022-08-02T17:24:05.189Z,28.60
2022-08-02T17:29:17.764Z,28.60
2022-08-02T17:32:02.488Z,29.00
2022-08-02T17:34:35.398Z,28.70
2022-08-02T17:37:05.863Z,28.80
2022-08-02T17:39:44.261Z,28.80
2022-08-02T17:42:23.072Z,28.80
2022-08-02T17:44:52.681Z,28.80
2022-08-02T17:47:21.761Z,28.80
2022-08-02T17:49:50.094Z,28.80
2022-08-02T17:52:51.655Z,28.70
2022-08-02T17:55:12.930Z,28.60
2022-08-02T17:57:58.774Z,28.60
2022-08-02T18:00:33.885Z,28.50
2022-08-02T18:03:05.675Z,28.40
2022-08-02T18:05:38.841Z,28.30
2022-08-02T18:08:09.001Z,28.20
2022-08-02T18:10:37.011Z,28.20
2022-08-02T18:13:05.211Z,28.20
2022-08-02T18:15:33.431Z,28.10
2022-08-02T18:18:01.453Z,28.10
2022-08-02T18:20:29.371Z,28.10
2022-08-02T18:22:58.811Z,28.00
2022-08-02T18:25:37.715Z,28.00
2022-08-02T18:28:14.072Z,28.00
2022-08-02T18:30:41.993Z,28.00
2022-08-02T18:33:58.736Z,27.90
2022-08-02T18:35:57.946Z,27.80
2022-08-02T18:38:28.280Z,27.70
2022-08-02T18:40:59.587Z,27.60
2022-08-02T18:43:29.475Z,27.50
2022-08-02T18:46:06.696Z,27.30
2022-08-02T18:48:46.802Z,27.20
2022-08-02T18:51:18.609Z,27.10
2022-08-02T18:53:50.739Z,27.00
2022-08-02T18:56:24.594Z,26.80
2022-08-02T18:58:53.380Z,26.70
2022-08-02T19:01:33.489Z,26.60
2022-08-02T19:04:03.910Z,26.40
2022-08-02T19:06:32.141Z,26.40
2022-08-02T19:09:11.212Z,26.20
2022-08-02T19:11:47.450Z,26.10
2022-08-02T19:14:24.233Z,26.00
2022-08-02T19:16:57.780Z,25.90
2022-08-02T19:19:28.693Z,25.70
2022-08-02T19:22:17.496Z,25.60
2022-08-02T19:24:47.145Z,25.50
2022-08-02T19:27:25.582Z,25.30
2022-08-02T19:29:54.283Z,25.20
2022-08-02T19:32:40.356Z,25.10
2022-08-02T19:38:08.789Z,24.80
2022-08-02T19:40:37.655Z,24.70
2022-08-02T19:44:26.003Z,24.60
2022-08-02T19:45:57.207Z,24.50
2022-08-02T19:48:27.067Z,24.40
2022-08-02T19:51:00.714Z,24.30
2022-08-02T19:53:46.853Z,24.20
2022-08-02T19:56:21.087Z,24.10
2022-08-02T19:58:51.999Z,24.00
2022-08-02T20:01:26.991Z,23.90
2022-08-02T20:03:56.506Z,23.90
2022-08-02T20:06:28.553Z,23.80
2022-08-02T20:08:59.090Z,23.80
2022-08-02T20:11:29.117Z,23.70
2022-08-02T20:14:04.899Z,23.70
2022-08-02T20:16:33.352Z,23.60
2022-08-02T20:19:02.410Z,23.60
2022-08-02T20:21:36.266Z,23.50
2022-08-02T20:24:06.712Z,23.50
2022-08-02T20:26:35.422Z,23.40
2022-08-02T20:29:05.135Z,23.40
2022-08-02T20:31:33.152Z,23.30
2022-08-02T20:34:01.210Z,23.30
2022-08-02T20:36:29.482Z,23.20
2022-08-02T20:38:57.542Z,23.20
2022-08-02T20:41:36.901Z,23.20
2022-08-02T20:44:15.285Z,23.10
2022-08-02T20:46:44.791Z,23.10
2022-08-02T20:49:21.648Z,23.10
2022-08-02T20:51:53.887Z,23.10
2022-08-02T20:54:22.531Z,23.00
2022-08-02T20:56:51.048Z,23.00
2022-08-02T20:59:22.500Z,23.00
2022-08-02T21:01:57.188Z,23.00
2022-08-02T21:04:26.277Z,22.90
2022-08-02T21:06:55.771Z,22.90
2022-08-02T21:09:52.621Z,22.80
2022-08-02T21:12:12.855Z,22.80
2022-08-02T21:14:42.210Z,22.70
2022-08-02T21:17:11.123Z,22.60
2022-08-02T21:19:44.376Z,22.60
2022-08-02T21:22:12.680Z,22.50
2022-08-02T21:24:41.006Z,22.50
2022-08-02T21:27:51.418Z,22.40
2022-08-02T21:29:58.163Z,22.40
2022-08-02T21:32:26.212Z,22.40
2022-08-02T21:34:54.667Z,22.30
2022-08-02T21:37:22.575Z,22.20
2022-08-02T21:40:01.630Z,22.20
2022-08-02T21:42:29.767Z,22.10
2022-08-02T21:44:59.197Z,22.00
2022-08-02T21:47:27.072Z,22.00
2022-08-02T21:50:13.439Z,21.90
2022-08-02T21:52:51.208Z,21.80
2022-08-02T21:55:21.346Z,21.70
2022-08-02T21:57:52.417Z,21.60
2022-08-02T22:00:28.933Z,21.50
2022-08-02T22:02:57.146Z,21.40
2022-08-02T22:05:27.271Z,21.30
2022-08-02T22:08:05.672Z,21.30
2022-08-02T22:10:53.712Z,21.20
2022-08-02T22:13:22.694Z,21.10
2022-08-02T22:15:52.298Z,21.10
2022-08-02T22:18:29.402Z,21.00
2022-08-02T22:20:58.298Z,20.90
2022-08-02T22:23:38.750Z,21.00
2022-08-02T22:26:14.191Z,20.90
2022-08-02T22:28:50.226Z,20.70
2022-08-02T22:31:36.147Z,20.70
2022-08-02T22:34:26.935Z,20.60
2022-08-02T22:36:56.375Z,20.60
2022-08-02T22:39:24.297Z,20.50
2022-08-02T22:42:06.170Z,20.40
2022-08-02T22:44:35.691Z,20.40
2022-08-02T22:47:14.932Z,20.30
2022-08-02T22:49:54.299Z,20.30
2022-08-02T22:52:24.055Z,20.30
2022-08-02T22:54:52.036Z,20.20
2022-08-02T22:57:30.131Z,20.10
2022-08-02T22:58:38.443Z,28.60
2022-08-02T22:58:52.376Z,24.90
2022-08-02T22:59:59.562Z,20.10
2022-08-02T23:02:29.967Z,20.00
2022-08-02T23:04:58.235Z,20.00
2022-08-02T23:07:26.203Z,19.90
2022-08-02T23:09:54.131Z,19.90
2022-08-02T23:12:22.130Z,19.90
2022-08-02T23:14:51.229Z,19.90
2022-08-02T23:17:36.734Z,19.80
2022-08-02T23:20:07.392Z,19.80
2022-08-02T23:22:35.283Z,19.80
2022-08-02T23:25:04.135Z,19.80
2022-08-02T23:27:32.902Z,19.80
2022-08-02T23:30:01.629Z,19.70
2022-08-02T23:32:30.306Z,19.60
2022-08-02T23:34:58.967Z,19.50
2022-08-02T23:37:28.246Z,19.60
2022-08-02T23:40:16.126Z,19.50
2022-08-02T23:43:12.492Z,19.50
2022-08-02T23:45:43.915Z,19.40
2022-08-02T23:48:11.783Z,19.40
2022-08-02T23:50:39.731Z,19.20
2022-08-02T23:53:09.008Z,19.30
2022-08-02T23:55:36.897Z,19.30
2022-08-02T23:58:04.813Z,19.20
